sensor_id;sensor_type;location;lat;lon;timestamp;pressure;altitude;pressure_sealevel;temperature;humidity
12146;BME280;6136;47.032;15.398;2022-11-03T00:01:48;98305.09;;;13.47;nan
12146;BME280;6136;47.032;15.398;2022-11-03T00:04:18;98305.97;;;13.47;nan
12146;BME280;6136;47.032;15.398;2022-11-03T00:06:48;98310.22;;;13.50;nan
12146;BME280;6136;47.032;15.398;2022-11-03T00:09:17;98306.63;;;13.51;nan
12146;BME280;6136;47.032;15.398;2022-11-03T00:11:47;98297.69;;;13.52;nan
12146;BME280;6136;47.032;15.398;2022-11-03T00:14:16;98310.13;;;13.51;nan
12146;BME280;6136;47.032;15.398;2022-11-03T00:16:46;98301.13;;;13.54;nan
12146;BME280;6136;47.032;15.398;2022-11-03T00:19:15;98297.59;;;13.53;nan
12146;BME280;6136;47.032;15.398;2022-11-03T00:21:43;98299.31;;;13.54;nan
12146;BME280;6136;47.032;15.398;2022-11-03T00:24:12;98301.97;;;13.54;nan
12146;BME280;6136;47.032;15.398;2022-11-03T00:26:40;98306.34;;;13.55;nan
12146;BME280;6136;47.032;15.398;2022-11-03T00:29:10;98302.72;;;13.56;nan
12146;BME280;6136;47.032;15.398;2022-11-03T00:31:39;98301.97;;;13.54;nan
12146;BME280;6136;47.032;15.398;2022-11-03T00:34:09;98298.53;;;13.52;nan
12146;BME280;6136;47.032;15.398;2022-11-03T00:36:39;98294.16;;;13.51;nan
12146;BME280;6136;47.032;15.398;2022-11-03T00:42:34;98293.97;;;13.54;nan
12146;BME280;6136;47.032;15.398;2022-11-03T00:46:04;98297.59;;;13.53;nan
12146;BME280;6136;47.032;15.398;2022-11-03T00:56:11;98283.25;;;13.56;nan
12146;BME280;6136;47.032;15.398;2022-11-03T00:59:31;98282.38;;;13.55;nan
12146;BME280;6136;47.032;15.398;2022-11-03T01:02:46;98280.66;;;13.54;nan
12146;BME280;6136;47.032;15.398;2022-11-03T01:06:04;98286.00;;;13.54;nan
12146;BME280;6136;47.032;15.398;2022-11-03T01:09:20;98278.09;;;13.53;nan
12146;BME280;6136;47.032;15.398;2022-11-03T01:12:42;98284.28;;;13.53;nan
12146;BME280;6136;47.032;15.398;2022-11-03T01:19:44;98273.41;;;13.56;nan
12146;BME280;6136;47.032;15.398;2022-11-03T01:30:44;98269.06;;;13.55;nan
12146;BME280;6136;47.032;15.398;2022-11-03T01:33:56;98273.63;;;13.53;nan
12146;BME280;6136;47.032;15.398;2022-11-03T01:37:29;98264.59;;;13.56;nan
12146;BME280;6136;47.032;15.398;2022-11-03T01:41:03;98253.81;;;13.57;nan
12146;BME280;6136;47.032;15.398;2022-11-03T01:48:09;98261.09;;;13.55;nan
12146;BME280;6136;47.032;15.398;2022-11-03T01:51:12;98249.44;;;13.56;nan
12146;BME280;6136;47.032;15.398;2022-11-03T01:54:43;98256.59;;;13.56;nan
12146;BME280;6136;47.032;15.398;2022-11-03T01:57:56;98252.09;;;13.56;nan
12146;BME280;6136;47.032;15.398;2022-11-03T02:01:03;98249.56;;;13.55;nan
12146;BME280;6136;47.032;15.398;2022-11-03T02:04:20;98251.56;;;13.51;nan
12146;BME280;6136;47.032;15.398;2022-11-03T02:07:34;98243.56;;;13.51;nan
12146;BME280;6136;47.032;15.398;2022-11-03T02:11:05;98237.13;;;13.55;nan
12146;BME280;6136;47.032;15.398;2022-11-03T02:14:32;98237.28;;;13.52;nan
12146;BME280;6136;47.032;15.398;2022-11-03T02:20:48;98234.59;;;13.67;nan
12146;BME280;6136;47.032;15.398;2022-11-03T02:28:19;98220.38;;;13.53;nan
12146;BME280;6136;47.032;15.398;2022-11-03T02:32:02;98221.13;;;13.55;nan
12146;BME280;6136;47.032;15.398;2022-11-03T02:35:28;98221.69;;;13.60;nan
12146;BME280;6136;47.032;15.398;2022-11-03T02:38:52;98218.56;;;13.54;nan
12146;BME280;6136;47.032;15.398;2022-11-03T02:42:28;98219.97;;;13.59;nan
12146;BME280;6136;47.032;15.398;2022-11-03T02:45:43;98221.13;;;13.55;nan
12146;BME280;6136;47.032;15.398;2022-11-03T02:52:37;98225.56;;;13.69;nan
12146;BME280;6136;47.032;15.398;2022-11-03T02:55:53;98224.44;;;13.59;nan
12146;BME280;6136;47.032;15.398;2022-11-03T02:59:14;98225.47;;;13.56;nan
12146;BME280;6136;47.032;15.398;2022-11-03T03:03:07;98228.34;;;13.53;nan
12146;BME280;6136;47.032;15.398;2022-11-03T03:06:50;98221.13;;;13.41;nan
12146;BME280;6136;47.032;15.398;2022-11-03T03:10:08;98218.59;;;13.40;nan
12146;BME280;6136;47.032;15.398;2022-11-03T03:13:49;98224.00;;;13.38;nan
12146;BME280;6136;47.032;15.398;2022-11-03T03:17:27;98214.97;;;13.41;nan
12146;BME280;6136;47.032;15.398;2022-11-03T03:20:28;98225.03;;;13.21;nan
12146;BME280;6136;47.032;15.398;2022-11-03T03:23:44;98226.28;;;13.30;nan
12146;BME280;6136;47.032;15.398;2022-11-03T03:27:11;98220.19;;;13.28;nan
12146;BME280;6136;47.032;15.398;2022-11-03T03:30:27;98215.25;;;13.22;nan
12146;BME280;6136;47.032;15.398;2022-11-03T03:33:52;98219.16;;;13.16;nan
12146;BME280;6136;47.032;15.398;2022-11-03T03:37:20;98219.81;;;13.20;nan
12146;BME280;6136;47.032;15.398;2022-11-03T03:40:47;98216.03;;;13.24;nan
12146;BME280;6136;47.032;15.398;2022-11-03T03:44:00;98225.44;;;13.15;nan
12146;BME280;6136;47.032;15.398;2022-11-03T03:47:20;98216.38;;;13.04;nan
12146;BME280;6136;47.032;15.398;2022-11-03T03:50:24;98211.63;;;12.95;nan
12146;BME280;6136;47.032;15.398;2022-11-03T03:53:34;98204.97;;;12.88;nan
12146;BME280;6136;47.032;15.398;2022-11-03T03:57:54;98208.97;;;12.80;nan
12146;BME280;6136;47.032;15.398;2022-11-03T04:00:50;98218.25;;;12.73;nan
12146;BME280;6136;47.032;15.398;2022-11-03T04:07:27;98215.28;;;12.64;nan
12146;BME280;6136;47.032;15.398;2022-11-03T04:14:27;98210.34;;;12.58;nan
12146;BME280;6136;47.032;15.398;2022-11-03T04:21:15;98203.22;;;12.58;nan
12146;BME280;6136;47.032;15.398;2022-11-03T04:24:49;98205.75;;;12.60;nan
12146;BME280;6136;47.032;15.398;2022-11-03T04:28:07;98206.44;;;12.63;nan
12146;BME280;6136;47.032;15.398;2022-11-03T04:35:29;98202.16;;;12.61;nan
12146;BME280;6136;47.032;15.398;2022-11-03T04:38:52;98200.09;;;12.52;nan
12146;BME280;6136;47.032;15.398;2022-11-03T04:49:12;98205.47;;;12.50;nan
12146;BME280;6136;47.032;15.398;2022-11-03T04:55:43;98196.72;;;12.48;nan
12146;BME280;6136;47.032;15.398;2022-11-03T04:59:04;98205.47;;;12.50;nan
12146;BME280;6136;47.032;15.398;2022-11-03T05:02:18;98199.41;;;12.48;nan
12146;BME280;6136;47.032;15.398;2022-11-03T05:05:50;98195.72;;;12.51;nan
12146;BME280;6136;47.032;15.398;2022-11-03T05:08:54;98185.44;;;12.44;nan
12146;BME280;6136;47.032;15.398;2022-11-03T05:12:38;98181.94;;;12.44;nan
12146;BME280;6136;47.032;15.398;2022-11-03T05:15:40;98182.00;;;12.42;nan
12146;BME280;6136;47.032;15.398;2022-11-03T05:18:48;98187.41;;;12.41;nan
12146;BME280;6136;47.032;15.398;2022-11-03T05:22:13;98182.97;;;12.41;nan
12146;BME280;6136;47.032;15.398;2022-11-03T05:25:33;98177.66;;;12.41;nan
12146;BME280;6136;47.032;15.398;2022-11-03T05:28:38;98171.63;;;12.38;nan
12146;BME280;6136;47.032;15.398;2022-11-03T05:32:33;98176.22;;;12.36;nan
12146;BME280;6136;47.032;15.398;2022-11-03T05:39:39;98177.06;;;12.36;nan
12146;BME280;6136;47.032;15.398;2022-11-03T05:46:56;98176.97;;;12.38;nan
12146;BME280;6136;47.032;15.398;2022-11-03T05:49:32;98176.09;;;12.37;nan
12146;BME280;6136;47.032;15.398;2022-11-03T05:52:38;98179.81;;;12.35;nan
12146;BME280;6136;47.032;15.398;2022-11-03T06:02:49;98181.03;;;12.29;nan
12146;BME280;6136;47.032;15.398;2022-11-03T06:05:47;98179.31;;;12.28;nan
12146;BME280;6136;47.032;15.398;2022-11-03T06:09:32;98186.34;;;12.29;nan
12146;BME280;6136;47.032;15.398;2022-11-03T06:12:46;98182.94;;;12.27;nan
12146;BME280;6136;47.032;15.398;2022-11-03T06:19:21;98189.00;;;12.29;nan
12146;BME280;6136;47.032;15.398;2022-11-03T06:23:09;98187.38;;;12.27;nan
12146;BME280;6136;47.032;15.398;2022-11-03T06:33:37;98200.31;;;12.33;nan
12146;BME280;6136;47.032;15.398;2022-11-03T06:44:30;98204.69;;;12.34;nan
12146;BME280;6136;47.032;15.398;2022-11-03T06:47:38;98203.44;;;12.39;nan
12146;BME280;6136;47.032;15.398;2022-11-03T06:51:02;98201.09;;;12.49;nan
12146;BME280;6136;47.032;15.398;2022-11-03T06:54:22;98212.31;;;12.54;nan
12146;BME280;6136;47.032;15.398;2022-11-03T06:57:32;98213.84;;;12.58;nan
12146;BME280;6136;47.032;15.398;2022-11-03T07:00:52;98212.53;;;12.65;nan
12146;BME280;6136;47.032;15.398;2022-11-03T07:04:00;98203.31;;;12.71;nan
12146;BME280;6136;47.032;15.398;2022-11-03T07:13:05;98203.72;;;12.93;nan
12146;BME280;6136;47.032;15.398;2022-11-03T07:18:28;98200.22;;;13.35;nan
12146;BME280;6136;47.032;15.398;2022-11-03T07:25:04;98202.31;;;13.44;nan
12146;BME280;6136;47.032;15.398;2022-11-03T07:27:55;98199.28;;;13.36;nan
12146;BME280;6136;47.032;15.398;2022-11-03T07:31:00;98195.09;;;13.32;nan
12146;BME280;6136;47.032;15.398;2022-11-03T07:34:28;98193.00;;;13.37;nan
12146;BME280;6136;47.032;15.398;2022-11-03T07:37:35;98199.38;;;13.35;nan
12146;BME280;6136;47.032;15.398;2022-11-03T07:41:11;98182.31;;;13.51;nan
12146;BME280;6136;47.032;15.398;2022-11-03T07:44:15;98178.84;;;13.64;nan
12146;BME280;6136;47.032;15.398;2022-11-03T07:47:37;98174.88;;;13.71;nan
12146;BME280;6136;47.032;15.398;2022-11-03T07:51:19;98176.91;;;14.07;nan
12146;BME280;6136;47.032;15.398;2022-11-03T07:54:27;98161.38;;;14.13;nan
12146;BME280;6136;47.032;15.398;2022-11-03T07:57:18;98166.59;;;14.15;nan
12146;BME280;6136;47.032;15.398;2022-11-03T08:00:24;98162.44;;;14.23;nan
12146;BME280;6136;47.032;15.398;2022-11-03T08:07:00;98154.13;;;15.42;nan
12146;BME280;6136;47.032;15.398;2022-11-03T08:09:56;98151.69;;;15.39;nan
12146;BME280;6136;47.032;15.398;2022-11-03T08:13:21;98139.41;;;15.36;nan
12146;BME280;6136;47.032;15.398;2022-11-03T08:16:26;98140.44;;;15.46;nan
12146;BME280;6136;47.032;15.398;2022-11-03T08:19:34;98148.19;;;15.26;nan
12146;BME280;6136;47.032;15.398;2022-11-03T08:22:41;98141.19;;;14.99;nan
12146;BME280;6136;47.032;15.398;2022-11-03T08:26:06;98115.50;;;15.22;nan
12146;BME280;6136;47.032;15.398;2022-11-03T08:36:07;98111.06;;;17.31;nan
12146;BME280;6136;47.032;15.398;2022-11-03T08:38:52;98097.25;;;17.69;nan
12146;BME280;6136;47.032;15.398;2022-11-03T08:42:22;98094.38;;;17.38;nan
12146;BME280;6136;47.032;15.398;2022-11-03T08:45:35;98083.69;;;17.16;nan
12146;BME280;6136;47.032;15.398;2022-11-03T08:48:45;98085.13;;;17.31;nan
12146;BME280;6136;47.032;15.398;2022-11-03T08:51:57;98077.38;;;17.17;nan
12146;BME280;6136;47.032;15.398;2022-11-03T08:55:15;98077.50;;;16.93;nan
12146;BME280;6136;47.032;15.398;2022-11-03T08:58:14;98070.00;;;17.41;nan
12146;BME280;6136;47.032;15.398;2022-11-03T09:04:48;98066.44;;;16.87;nan
12146;BME280;6136;47.032;15.398;2022-11-03T09:07:36;98067.03;;;16.68;nan
12146;BME280;6136;47.032;15.398;2022-11-03T09:10:50;98070.53;;;16.57;nan
12146;BME280;6136;47.032;15.398;2022-11-03T09:14:24;98072.88;;;16.16;nan
12146;BME280;6136;47.032;15.398;2022-11-03T09:17:16;98062.53;;;16.00;nan
12146;BME280;6136;47.032;15.398;2022-11-03T09:20:49;98055.84;;;16.17;nan
12146;BME280;6136;47.032;15.398;2022-11-03T09:23:41;98054.88;;;16.07;nan
12146;BME280;6136;47.032;15.398;2022-11-03T09:27:20;98059.06;;;16.22;nan
12146;BME280;6136;47.032;15.398;2022-11-03T09:29:50;98052.47;;;16.26;nan
12146;BME280;6136;47.032;15.398;2022-11-03T09:32:47;98046.66;;;16.32;nan
12146;BME280;6136;47.032;15.398;2022-11-03T09:39:16;98045.94;;;15.84;nan
12146;BME280;6136;47.032;15.398;2022-11-03T09:42:14;98039.16;;;15.91;nan
12146;BME280;6136;47.032;15.398;2022-11-03T09:45:38;98038.69;;;15.97;nan
12146;BME280;6136;47.032;15.398;2022-11-03T09:48:57;98032.56;;;15.84;nan
12146;BME280;6136;47.032;15.398;2022-11-03T09:52:28;98030.16;;;15.57;nan
12146;BME280;6136;47.032;15.398;2022-11-03T09:55:40;98024.81;;;15.57;nan
12146;BME280;6136;47.032;15.398;2022-11-03T09:58:52;98010.72;;;15.55;nan
12146;BME280;6136;47.032;15.398;2022-11-03T10:01:37;98004.97;;;15.48;nan
12146;BME280;6136;47.032;15.398;2022-11-03T10:04:54;98001.97;;;15.53;nan
12146;BME280;6136;47.032;15.398;2022-11-03T10:08:00;97989.00;;;15.36;nan
12146;BME280;6136;47.032;15.398;2022-11-03T10:11:39;97989.09;;;15.58;nan
12146;BME280;6136;47.032;15.398;2022-11-03T10:14:29;97975.34;;;15.86;nan
12146;BME280;6136;47.032;15.398;2022-11-03T10:17:05;97968.84;;;16.46;nan
12146;BME280;6136;47.032;15.398;2022-11-03T10:20:04;97951.59;;;16.50;nan
12146;BME280;6136;47.032;15.398;2022-11-03T10:23:28;97955.47;;;16.46;nan
12146;BME280;6136;47.032;15.398;2022-11-03T10:26:56;97952.34;;;16.63;nan
12146;BME280;6136;47.032;15.398;2022-11-03T10:30:09;97939.59;;;17.10;nan
12146;BME280;6136;47.032;15.398;2022-11-03T10:33:26;97940.06;;;17.36;nan
12146;BME280;6136;47.032;15.398;2022-11-03T10:36:28;97927.50;;;17.16;nan
12146;BME280;6136;47.032;15.398;2022-11-03T10:40:31;97929.22;;;16.74;nan
12146;BME280;6136;47.032;15.398;2022-11-03T10:47:20;97907.56;;;16.65;nan
12146;BME280;6136;47.032;15.398;2022-11-03T10:50:59;97897.59;;;16.23;nan
12146;BME280;6136;47.032;15.398;2022-11-03T10:54:13;97894.22;;;16.10;nan
12146;BME280;6136;47.032;15.398;2022-11-03T11:00:32;97880.25;;;16.94;nan
12146;BME280;6136;47.032;15.398;2022-11-03T11:03:40;97881.94;;;16.95;nan
12146;BME280;6136;47.032;15.398;2022-11-03T11:13:42;97863.47;;;17.13;nan
12146;BME280;6136;47.032;15.398;2022-11-03T11:20:49;97828.66;;;16.92;nan
12146;BME280;6136;47.032;15.398;2022-11-03T11:28:33;97829.28;;;19.35;nan
12146;BME280;6136;47.032;15.398;2022-11-03T11:31:53;97824.19;;;19.23;nan
12146;BME280;6136;47.032;15.398;2022-11-03T11:35:14;97817.63;;;18.48;nan
12146;BME280;6136;47.032;15.398;2022-11-03T11:42:13;97818.97;;;18.14;nan
12146;BME280;6136;47.032;15.398;2022-11-03T11:53:38;97799.19;;;18.93;nan
12146;BME280;6136;47.032;15.398;2022-11-03T12:00:51;97766.59;;;19.54;nan
12146;BME280;6136;47.032;15.398;2022-11-03T12:03:55;97771.44;;;19.22;nan
12146;BME280;6136;47.032;15.398;2022-11-03T12:07:09;97770.78;;;18.03;nan
12146;BME280;6136;47.032;15.398;2022-11-03T12:14:30;97743.69;;;17.66;nan
12146;BME280;6136;47.032;15.398;2022-11-03T12:17:48;97732.50;;;17.30;nan
12146;BME280;6136;47.032;15.398;2022-11-03T12:21:05;97738.97;;;17.49;nan
12146;BME280;6136;47.032;15.398;2022-11-03T12:24:34;97716.59;;;17.08;nan
12146;BME280;6136;47.032;15.398;2022-11-03T12:32:04;97711.56;;;16.41;nan
12146;BME280;6136;47.032;15.398;2022-11-03T12:36:19;97707.25;;;16.29;nan
12146;BME280;6136;47.032;15.398;2022-11-03T12:46:06;97697.25;;;16.31;nan
12146;BME280;6136;47.032;15.398;2022-11-03T12:49:51;97689.25;;;16.31;nan
12146;BME280;6136;47.032;15.398;2022-11-03T12:53:04;97683.03;;;16.30;nan
12146;BME280;6136;47.032;15.398;2022-11-03T13:00:03;97658.50;;;16.25;nan
12146;BME280;6136;47.032;15.398;2022-11-03T13:03:53;97650.16;;;16.19;nan
12146;BME280;6136;47.032;15.398;2022-11-03T13:07:34;97635.97;;;16.39;nan
12146;BME280;6136;47.032;15.398;2022-11-03T13:10:38;97642.69;;;16.54;nan
12146;BME280;6136;47.032;15.398;2022-11-03T13:14:04;97636.69;;;16.83;nan
12146;BME280;6136;47.032;15.398;2022-11-03T13:17:20;97630.47;;;17.33;nan
12146;BME280;6136;47.032;15.398;2022-11-03T13:21:14;97622.28;;;17.94;nan
12146;BME280;6136;47.032;15.398;2022-11-03T13:31:25;97609.44;;;17.88;nan
12146;BME280;6136;47.032;15.398;2022-11-03T13:38:57;97602.41;;;17.97;nan
12146;BME280;6136;47.032;15.398;2022-11-03T13:41:56;97600.56;;;17.78;nan
12146;BME280;6136;47.032;15.398;2022-11-03T13:45:02;97605.72;;;17.20;nan
12146;BME280;6136;47.032;15.398;2022-11-03T13:48:15;97595.31;;;17.27;nan
12146;BME280;6136;47.032;15.398;2022-11-03T13:52:18;97594.22;;;16.99;nan
12146;BME280;6136;47.032;15.398;2022-11-03T13:55:38;97591.91;;;16.85;nan
12146;BME280;6136;47.032;15.398;2022-11-03T13:59:06;97583.94;;;16.64;nan
12146;BME280;6136;47.032;15.398;2022-11-03T14:06:02;97579.31;;;16.76;nan
12146;BME280;6136;47.032;15.398;2022-11-03T14:09:10;97572.50;;;16.62;nan
12146;BME280;6136;47.032;15.398;2022-11-03T14:12:41;97582.66;;;16.47;nan
12146;BME280;6136;47.032;15.398;2022-11-03T14:16:02;97586.59;;;16.43;nan
12146;BME280;6136;47.032;15.398;2022-11-03T14:19:19;97588.78;;;16.38;nan
12146;BME280;6136;47.032;15.398;2022-11-03T14:22:33;97575.25;;;16.30;nan
12146;BME280;6136;47.032;15.398;2022-11-03T14:26:03;97571.66;;;16.20;nan
12146;BME280;6136;47.032;15.398;2022-11-03T14:29:22;97572.41;;;16.31;nan
12146;BME280;6136;47.032;15.398;2022-11-03T14:32:45;97564.28;;;16.33;nan
12146;BME280;6136;47.032;15.398;2022-11-03T14:36:26;97568.19;;;16.29;nan
12146;BME280;6136;47.032;15.398;2022-11-03T14:39:19;97567.53;;;16.16;nan
12146;BME280;6136;47.032;15.398;2022-11-03T14:42:55;97564.16;;;16.14;nan
12146;BME280;6136;47.032;15.398;2022-11-03T14:46:00;97556.97;;;16.14;nan
12146;BME280;6136;47.032;15.398;2022-11-03T14:48:59;97544.63;;;16.02;nan
12146;BME280;6136;47.032;15.398;2022-11-03T14:51:52;97541.63;;;15.96;nan
12146;BME280;6136;47.032;15.398;2022-11-03T14:54:54;97541.50;;;15.97;nan
12146;BME280;6136;47.032;15.398;2022-11-03T14:57:48;97534.47;;;15.96;nan
12146;BME280;6136;47.032;15.398;2022-11-03T15:01:01;97538.50;;;15.90;nan
12146;BME280;6136;47.032;15.398;2022-11-03T15:04:34;97534.06;;;15.80;nan
12146;BME280;6136;47.032;15.398;2022-11-03T15:08:01;97523.56;;;15.67;nan
12146;BME280;6136;47.032;15.398;2022-11-03T15:11:49;97518.97;;;15.58;nan
12146;BME280;6136;47.032;15.398;2022-11-03T15:15:11;97510.50;;;15.53;nan
12146;BME280;6136;47.032;15.398;2022-11-03T15:18:34;97515.13;;;15.40;nan
12146;BME280;6136;47.032;15.398;2022-11-03T15:25:16;97508.63;;;15.22;nan
12146;BME280;6136;47.032;15.398;2022-11-03T15:28:13;97502.94;;;15.15;nan
12146;BME280;6136;47.032;15.398;2022-11-03T15:34:45;97506.63;;;15.03;nan
12146;BME280;6136;47.032;15.398;2022-11-03T15:37:52;97494.59;;;14.97;nan
12146;BME280;6136;47.032;15.398;2022-11-03T15:41:18;97500.44;;;14.91;nan
12146;BME280;6136;47.032;15.398;2022-11-03T15:44:20;97483.00;;;14.87;nan
12146;BME280;6136;47.032;15.398;2022-11-03T15:50:56;97467.25;;;14.73;nan
12146;BME280;6136;47.032;15.398;2022-11-03T15:54:05;97476.09;;;14.62;nan
12146;BME280;6136;47.032;15.398;2022-11-03T15:57:27;97474.31;;;14.52;nan
12146;BME280;6136;47.032;15.398;2022-11-03T16:00:31;97465.44;;;14.40;nan
12146;BME280;6136;47.032;15.398;2022-11-03T16:04:03;97468.94;;;14.29;nan
12146;BME280;6136;47.032;15.398;2022-11-03T16:06:59;97472.81;;;14.25;nan
12146;BME280;6136;47.032;15.398;2022-11-03T16:10:30;97469.88;;;14.17;nan
12146;BME280;6136;47.032;15.398;2022-11-03T16:13:22;97460.19;;;14.05;nan
12146;BME280;6136;47.032;15.398;2022-11-03T16:16:46;97463.81;;;13.93;nan
12146;BME280;6136;47.032;15.398;2022-11-03T16:19:50;97464.16;;;13.88;nan
12146;BME280;6136;47.032;15.398;2022-11-03T16:23:04;97463.78;;;13.71;nan
12146;BME280;6136;47.032;15.398;2022-11-03T16:26:15;97457.53;;;13.59;nan
12146;BME280;6136;47.032;15.398;2022-11-03T16:29:28;97456.31;;;13.52;nan
12146;BME280;6136;47.032;15.398;2022-11-03T16:33:49;97454.63;;;13.51;nan
12146;BME280;6136;47.032;15.398;2022-11-03T16:36:20;97446.63;;;13.51;nan
12146;BME280;6136;47.032;15.398;2022-11-03T16:39:41;97443.00;;;13.52;nan
12146;BME280;6136;47.032;15.398;2022-11-03T16:43:39;97427.41;;;13.47;nan
12146;BME280;6136;47.032;15.398;2022-11-03T16:46:52;97428.94;;;13.39;nan
12146;BME280;6136;47.032;15.398;2022-11-03T16:50:21;97418.41;;;13.37;nan
12146;BME280;6136;47.032;15.398;2022-11-03T16:53:46;97408.72;;;13.36;nan
12146;BME280;6136;47.032;15.398;2022-11-03T16:57:14;97402.28;;;13.28;nan
12146;BME280;6136;47.032;15.398;2022-11-03T17:00:36;97404.91;;;13.16;nan
12146;BME280;6136;47.032;15.398;2022-11-03T17:03:35;97400.34;;;13.06;nan
12146;BME280;6136;47.032;15.398;2022-11-03T17:06:54;97402.72;;;12.98;nan
12146;BME280;6136;47.032;15.398;2022-11-03T17:10:06;97390.63;;;12.94;nan
12146;BME280;6136;47.032;15.398;2022-11-03T17:13:35;97389.22;;;12.77;nan
12146;BME280;6136;47.032;15.398;2022-11-03T17:19:43;97391.19;;;12.62;nan
12146;BME280;6136;47.032;15.398;2022-11-03T17:23:07;97390.69;;;12.57;nan
12146;BME280;6136;47.032;15.398;2022-11-03T17:29:34;97393.16;;;12.48;nan
12146;BME280;6136;47.032;15.398;2022-11-03T17:32:43;97391.91;;;12.40;nan
12146;BME280;6136;47.032;15.398;2022-11-03T17:35:55;97393.19;;;12.35;nan
12146;BME280;6136;47.032;15.398;2022-11-03T17:39:07;97393.66;;;12.29;nan
12146;BME280;6136;47.032;15.398;2022-11-03T17:42:37;97381.63;;;12.23;nan
12146;BME280;6136;47.032;15.398;2022-11-03T17:49:22;97376.47;;;12.09;nan
12146;BME280;6136;47.032;15.398;2022-11-03T17:53:18;97355.91;;;12.00;nan
12146;BME280;6136;47.032;15.398;2022-11-03T17:56:53;97357.59;;;11.88;nan
12146;BME280;6136;47.032;15.398;2022-11-03T18:00:19;97358.22;;;11.79;nan
12146;BME280;6136;47.032;15.398;2022-11-03T18:03:46;97345.47;;;11.72;nan
12146;BME280;6136;47.032;15.398;2022-11-03T18:07:14;97350.34;;;11.65;nan
12146;BME280;6136;47.032;15.398;2022-11-03T18:10:44;97352.91;;;11.66;nan
12146;BME280;6136;47.032;15.398;2022-11-03T18:14:17;97348.88;;;11.61;nan
12146;BME280;6136;47.032;15.398;2022-11-03T18:20:53;97338.91;;;11.52;nan
12146;BME280;6136;47.032;15.398;2022-11-03T18:24:26;97328.72;;;11.46;nan
12146;BME280;6136;47.032;15.398;2022-11-03T18:27:35;97325.56;;;11.41;nan
12146;BME280;6136;47.032;15.398;2022-11-03T18:31:11;97318.75;;;11.37;nan
12146;BME280;6136;47.032;15.398;2022-11-03T18:34:18;97315.00;;;11.26;nan
12146;BME280;6136;47.032;15.398;2022-11-03T18:45:40;97308.16;;;11.11;nan
12146;BME280;6136;47.032;15.398;2022-11-03T18:55:48;97299.97;;;11.14;nan
12146;BME280;6136;47.032;15.398;2022-11-03T18:58:19;97284.81;;;11.16;nan
12146;BME280;6136;47.032;15.398;2022-11-03T19:00:50;97281.06;;;11.19;nan
12146;BME280;6136;47.032;15.398;2022-11-03T19:03:21;97278.66;;;11.16;nan
12146;BME280;6136;47.032;15.398;2022-11-03T19:05:52;97285.66;;;11.17;nan
12146;BME280;6136;47.032;15.398;2022-11-03T19:08:28;97278.75;;;11.14;nan
12146;BME280;6136;47.032;15.398;2022-11-03T19:11:00;97263.88;;;11.12;nan
12146;BME280;6136;47.032;15.398;2022-11-03T19:13:33;97259.53;;;11.23;nan
12146;BME280;6136;47.032;15.398;2022-11-03T19:16:09;97252.34;;;11.25;nan
12146;BME280;6136;47.032;15.398;2022-11-03T19:18:49;97246.28;;;11.23;nan
12146;BME280;6136;47.032;15.398;2022-11-03T19:21:20;97248.00;;;11.24;nan
12146;BME280;6136;47.032;15.398;2022-11-03T19:23:51;97230.88;;;11.28;nan
12146;BME280;6136;47.032;15.398;2022-11-03T19:26:28;97239.91;;;11.39;nan
12146;BME280;6136;47.032;15.398;2022-11-03T19:29:01;97233.41;;;11.43;nan
12146;BME280;6136;47.032;15.398;2022-11-03T19:31:34;97216.88;;;11.39;nan
12146;BME280;6136;47.032;15.398;2022-11-03T19:34:12;97200.56;;;11.33;nan
12146;BME280;6136;47.032;15.398;2022-11-03T19:36:43;97204.38;;;11.28;nan
12146;BME280;6136;47.032;15.398;2022-11-03T19:39:16;97201.09;;;11.25;nan
12146;BME280;6136;47.032;15.398;2022-11-03T19:41:50;97205.84;;;11.20;nan
12146;BME280;6136;47.032;15.398;2022-11-03T19:44:37;97193.69;;;11.17;nan
12146;BME280;6136;47.032;15.398;2022-11-03T19:47:10;97193.13;;;11.12;nan
12146;BME280;6136;47.032;15.398;2022-11-03T19:49:42;97190.81;;;11.08;nan
12146;BME280;6136;47.032;15.398;2022-11-03T19:52:15;97189.34;;;11.04;nan
12146;BME280;6136;47.032;15.398;2022-11-03T19:54:47;97189.75;;;10.98;nan
12146;BME280;6136;47.032;15.398;2022-11-03T19:57:22;97173.00;;;10.84;nan
12146;BME280;6136;47.032;15.398;2022-11-03T19:59:52;97178.00;;;10.89;nan
12146;BME280;6136;47.032;15.398;2022-11-03T20:02:25;97167.50;;;10.87;nan
12146;BME280;6136;47.032;15.398;2022-11-03T20:04:55;97165.41;;;10.80;nan
12146;BME280;6136;47.032;15.398;2022-11-03T20:07:25;97156.69;;;10.78;nan
12146;BME280;6136;47.032;15.398;2022-11-03T20:09:59;97158.16;;;10.69;nan
12146;BME280;6136;47.032;15.398;2022-11-03T20:12:34;97169.63;;;10.70;nan
12146;BME280;6136;47.032;15.398;2022-11-03T20:15:12;97170.06;;;10.64;nan
12146;BME280;6136;47.032;15.398;2022-11-03T20:17:43;97169.19;;;10.63;nan
12146;BME280;6136;47.032;15.398;2022-11-03T20:20:14;97161.44;;;10.60;nan
12146;BME280;6136;47.032;15.398;2022-11-03T20:22:48;97174.94;;;10.57;nan
12146;BME280;6136;47.032;15.398;2022-11-03T20:25:20;97165.38;;;10.55;nan
12146;BME280;6136;47.032;15.398;2022-11-03T20:27:53;97168.25;;;10.52;nan
12146;BME280;6136;47.032;15.398;2022-11-03T20:30:25;97160.50;;;10.48;nan
12146;BME280;6136;47.032;15.398;2022-11-03T20:32:55;97159.56;;;10.49;nan
12146;BME280;6136;47.032;15.398;2022-11-03T20:35:27;97147.25;;;10.48;nan
12146;BME280;6136;47.032;15.398;2022-11-03T20:38:01;97146.63;;;10.58;nan
12146;BME280;6136;47.032;15.398;2022-11-03T20:40:31;97142.06;;;10.60;nan
12146;BME280;6136;47.032;15.398;2022-11-03T20:43:19;97144.06;;;10.69;nan
12146;BME280;6136;47.032;15.398;2022-11-03T20:45:53;97128.94;;;10.71;nan
12146;BME280;6136;47.032;15.398;2022-11-03T20:48:23;97139.31;;;10.74;nan
12146;BME280;6136;47.032;15.398;2022-11-03T20:50:54;97130.63;;;10.72;nan
12146;BME280;6136;47.032;15.398;2022-11-03T20:53:23;97113.22;;;10.68;nan
12146;BME280;6136;47.032;15.398;2022-11-03T20:55:56;97117.06;;;10.64;nan
12146;BME280;6136;47.032;15.398;2022-11-03T20:58:26;97117.38;;;10.59;nan
12146;BME280;6136;47.032;15.398;2022-11-03T21:00:55;97112.38;;;10.55;nan